createdAt,value
2018-11-06T00:00:54.192Z,31.28
2018-11-06T00:01:54.195Z,31.26
2018-11-06T00:02:54.201Z,31.28
2018-11-06T00:03:54.210Z,31.28
2018-11-06T00:04:54.212Z,31.37
2018-11-06T00:05:54.215Z,31.28
2018-11-06T00:06:54.221Z,31.47
2018-11-06T00:07:54.224Z,31.28
2018-11-06T00:08:54.230Z,31.37
2018-11-06T00:09:54.234Z,31.47
2018-11-06T00:10:54.239Z,31.26
2018-11-06T00:11:54.243Z,31.28
2018-11-06T00:12:54.248Z,31.28
2018-11-06T00:13:54.253Z,31.26
2018-11-06T00:14:54.293Z,31.37
2018-11-06T00:15:54.265Z,31.46
2018-11-06T00:16:54.269Z,31.28
2018-11-06T00:17:54.294Z,31.37
2018-11-06T00:18:54.275Z,31.47
2018-11-06T00:19:54.281Z,31.28
2018-11-06T00:20:54.286Z,31.36
2018-11-06T00:21:54.294Z,31.46
2018-11-06T00:22:54.297Z,31.37
2018-11-06T00:23:54.300Z,31.47
2018-11-06T00:24:54.305Z,31.47
2018-11-06T00:25:54.308Z,31.47
2018-11-06T00:26:54.312Z,31.47
2018-11-06T00:27:54.362Z,31.26
2018-11-06T00:28:54.327Z,31.28
2018-11-06T00:29:54.330Z,31.47
2018-11-06T00:30:54.333Z,31.28
2018-11-06T00:31:54.336Z,31.28
2018-11-06T00:32:54.343Z,31.37
2018-11-06T00:33:54.350Z,31.47
2018-11-06T00:34:54.353Z,31.16
2018-11-06T00:35:54.356Z,31.36
2018-11-06T00:36:54.363Z,31.28
2018-11-06T00:37:54.365Z,31.47
2018-11-06T00:38:54.379Z,31.37
2018-11-06T00:39:54.377Z,31.46
2018-11-06T00:40:54.417Z,31.46
2018-11-06T00:41:54.396Z,31.46
2018-11-06T00:42:54.390Z,31.36
2018-11-06T00:43:54.395Z,31.46
2018-11-06T00:44:54.399Z,31.36
2018-11-06T00:45:54.410Z,31.36
2018-11-06T00:46:54.412Z,31.37
2018-11-06T00:47:54.413Z,31.36
2018-11-06T00:48:54.419Z,31.36
2018-11-06T00:49:54.422Z,31.36
2018-11-06T00:50:54.429Z,31.28
2018-11-06T00:51:54.432Z,31.37
2018-11-06T00:52:54.437Z,31.28
2018-11-06T00:53:54.442Z,31.18
2018-11-06T00:54:54.448Z,31.26
2018-11-06T00:55:54.451Z,31.28
2018-11-06T00:56:54.461Z,31.37
2018-11-06T00:57:54.470Z,31.47
2018-11-06T00:58:54.466Z,31.36
2018-11-06T00:59:54.471Z,31.37
2018-11-06T01:00:54.476Z,31.37
2018-11-06T01:01:54.480Z,31.28
2018-11-06T01:02:54.483Z,31.37
2018-11-06T01:03:54.491Z,31.28
2018-11-06T01:04:54.558Z,31.26
2018-11-06T01:05:54.497Z,31.47
2018-11-06T01:06:54.503Z,31.37
2018-11-06T01:07:54.510Z,31.28
2018-11-06T01:08:54.513Z,31.36
2018-11-06T01:09:54.518Z,31.16
2018-11-06T01:10:54.521Z,31.28
2018-11-06T01:11:54.526Z,31.28
2018-11-06T01:12:54.532Z,31.37
2018-11-06T01:13:54.569Z,31.18
2018-11-06T01:14:54.549Z,31.47
2018-11-06T01:15:54.547Z,31.16
2018-11-06T01:16:54.551Z,31.28
2018-11-06T01:17:54.559Z,31.46
2018-11-06T01:18:54.561Z,31.47
2018-11-06T01:19:54.564Z,31.47
2018-11-06T01:20:54.570Z,31.28
2018-11-06T01:21:54.573Z,31.37
2018-11-06T01:22:54.579Z,31.18
2018-11-06T01:23:54.584Z,31.37
2018-11-06T01:24:54.589Z,31.28
2018-11-06T01:25:54.596Z,31.28
2018-11-06T01:26:54.597Z,31.37
2018-11-06T01:27:54.602Z,31.26
2018-11-06T01:28:54.607Z,31.28
2018-11-06T01:29:54.611Z,31.28
2018-11-06T01:30:54.616Z,31.47
2018-11-06T01:31:54.624Z,31.37
2018-11-06T01:32:54.630Z,31.26
2018-11-06T01:33:54.632Z,31.47
2018-11-06T01:34:54.653Z,31.47
2018-11-06T01:35:54.639Z,31.47
2018-11-06T01:36:54.645Z,31.28
2018-11-06T01:37:54.648Z,31.37
2018-11-06T01:38:54.657Z,31.37
2018-11-06T01:39:54.661Z,31.26
2018-11-06T01:40:54.664Z,31.37
2018-11-06T01:41:54.665Z,31.28
2018-11-06T01:42:54.672Z,31.18
2018-11-06T01:43:54.677Z,31.37
2018-11-06T01:44:54.685Z,31.47
2018-11-06T01:45:54.687Z,31.37
2018-11-06T01:46:54.692Z,31.47
2018-11-06T01:47:54.696Z,31.47
2018-11-06T01:48:54.701Z,31.37
2018-11-06T01:49:54.708Z,31.28
2018-11-06T01:50:54.710Z,31.47
2018-11-06T01:51:54.716Z,31.28
2018-11-06T01:52:54.722Z,31.46
2018-11-06T01:53:54.724Z,31.47
2018-11-06T01:54:54.731Z,31.28
2018-11-06T01:55:54.736Z,31.36
2018-11-06T01:56:54.742Z,31.26
2018-11-06T01:57:54.744Z,31.37
2018-11-06T01:58:54.749Z,31.37
2018-11-06T01:59:54.753Z,31.46
2018-11-06T02:00:54.759Z,31.37
2018-11-06T02:01:54.766Z,31.47
2018-11-06T02:02:54.768Z,31.37
2018-11-06T02:03:54.772Z,31.26
2018-11-06T02:04:54.778Z,31.37
2018-11-06T02:05:54.782Z,31.47
2018-11-06T02:06:54.786Z,31.37
2018-11-06T02:07:54.792Z,31.37
2018-11-06T02:08:54.797Z,31.36
2018-11-06T02:09:54.801Z,31.37
2018-11-06T02:10:54.805Z,31.37
2018-11-06T02:11:54.814Z,31.16
2018-11-06T02:12:54.815Z,31.28
2018-11-06T02:13:54.818Z,31.18
2018-11-06T02:14:54.824Z,31.28
2018-11-06T02:15:54.828Z,31.18
2018-11-06T02:16:54.840Z,31.28
2018-11-06T02:17:54.866Z,31.28
2018-11-06T02:18:54.844Z,31.46
2018-11-06T02:19:54.849Z,31.28
2018-11-06T02:20:54.852Z,31.18
2018-11-06T02:21:54.859Z,31.18
2018-11-06T02:22:54.862Z,31.09
2018-11-06T02:23:54.866Z,31.18
2018-11-06T02:24:54.872Z,31.36
2018-11-06T02:25:54.877Z,31.18
2018-11-06T02:26:54.891Z,31.18
2018-11-06T02:27:54.896Z,31.28
2018-11-06T02:28:54.893Z,31.18
2018-11-06T02:29:54.895Z,31.37
2018-11-06T02:30:54.899Z,31.18
2018-11-06T02:31:54.917Z,31.18
2018-11-06T02:32:54.911Z,31.28
2018-11-06T02:33:54.919Z,31.28
2018-11-06T02:34:54.922Z,31.28
2018-11-06T02:35:54.927Z,31.28
2018-11-06T02:36:54.951Z,31.28
2018-11-06T02:37:54.983Z,31.37
2018-11-06T02:38:54.961Z,31.18
2018-11-06T02:39:54.943Z,31.28
2018-11-06T02:40:54.949Z,31.18
2018-11-06T02:41:54.952Z,31.37
2018-11-06T02:42:55.002Z,31.28
2018-11-06T02:43:54.968Z,31.28
2018-11-06T02:44:54.966Z,31.28
2018-11-06T02:45:55.046Z,31.28
2018-11-06T02:46:54.975Z,31.18
2018-11-06T02:47:54.981Z,31.18
2018-11-06T02:48:54.989Z,31.37
2018-11-06T02:49:54.997Z,31.37
2018-11-06T02:50:54.996Z,31.18
2018-11-06T02:51:55.007Z,31.28
2018-11-06T02:52:55.005Z,31.28
2018-11-06T02:53:55.008Z,31.28
2018-11-06T02:54:55.014Z,31.09
2018-11-06T02:55:55.097Z,30.99
2018-11-06T02:56:55.024Z,31.37
2018-11-06T02:57:55.030Z,31.18
2018-11-06T02:58:55.109Z,31.09
2018-11-06T02:59:55.037Z,31.37
2018-11-06T03:00:55.047Z,31.28
2018-11-06T03:01:55.101Z,31.18
2018-11-06T03:02:55.051Z,31.18
2018-11-06T03:03:55.059Z,31.18
2018-11-06T03:04:55.104Z,31.28
2018-11-06T03:05:55.066Z,31.09
2018-11-06T03:06:55.070Z,31.18
2018-11-06T03:07:55.078Z,31.18
2018-11-06T03:08:55.080Z,31.09
2018-11-06T03:09:55.084Z,31.09
2018-11-06T03:10:55.090Z,31.09
2018-11-06T03:11:55.099Z,31.18
2018-11-06T03:12:55.106Z,30.99
2018-11-06T03:13:55.103Z,31.09
2018-11-06T03:14:55.151Z,31.09
2018-11-06T03:15:55.113Z,31.09
2018-11-06T03:16:55.193Z,31.18
2018-11-06T03:17:55.125Z,31.37
2018-11-06T03:18:55.130Z,31.18
2018-11-06T03:19:55.132Z,31.09
2018-11-06T03:20:55.138Z,31.18
2018-11-06T03:21:55.152Z,31.18
2018-11-06T03:22:55.150Z,31.28
2018-11-06T03:23:55.172Z,31.18
2018-11-06T03:24:55.166Z,31.18
2018-11-06T03:25:55.160Z,31.18
2018-11-06T03:26:55.383Z,31.28
2018-11-06T03:27:55.174Z,31.47
2018-11-06T03:28:55.175Z,31.09
2018-11-06T03:29:55.186Z,30.89
2018-11-06T03:30:55.186Z,30.99
2018-11-06T03:31:55.189Z,31.09
2018-11-06T03:32:55.196Z,30.89
2018-11-06T03:33:55.199Z,31.37
2018-11-06T03:34:55.205Z,31.18
2018-11-06T03:35:55.208Z,31.09
2018-11-06T03:36:55.213Z,31.28
2018-11-06T03:37:55.218Z,31.18
2018-11-06T03:38:55.223Z,31.18
2018-11-06T03:39:55.227Z,31.18
2018-11-06T03:40:55.237Z,31.18
2018-11-06T03:41:55.240Z,31.09
2018-11-06T03:42:55.254Z,31.28
2018-11-06T03:43:55.247Z,31.18
2018-11-06T03:44:55.252Z,31.09
2018-11-06T03:45:55.255Z,31.28
2018-11-06T03:46:55.261Z,31.28
2018-11-06T03:47:55.267Z,31.37
2018-11-06T03:48:55.314Z,31.18
2018-11-06T03:49:55.276Z,31.18
2018-11-06T03:50:55.287Z,31.09
2018-11-06T03:51:55.595Z,31.18
2018-11-06T03:52:55.290Z,31.28
2018-11-06T03:53:55.295Z,31.28
2018-11-06T03:54:55.301Z,31.09
2018-11-06T03:55:55.303Z,31.09
2018-11-06T03:56:55.307Z,31.09
2018-11-06T03:57:55.313Z,31.18
2018-11-06T03:58:55.316Z,31.28
2018-11-06T03:59:55.323Z,31.28
2018-11-06T04:00:55.400Z,31.28
2018-11-06T04:01:55.331Z,31.28
2018-11-06T04:02:55.344Z,31.28
2018-11-06T04:03:55.391Z,31.18
2018-11-06T04:04:55.349Z,31.18
2018-11-06T04:05:55.350Z,31.28
2018-11-06T04:06:55.370Z,31.18
2018-11-06T04:07:55.363Z,31.28
2018-11-06T04:08:55.368Z,31.28
2018-11-06T04:09:55.369Z,31.09
2018-11-06T04:10:55.377Z,31.18
2018-11-06T04:11:55.381Z,31.37
2018-11-06T04:12:55.398Z,30.79
2018-11-06T04:13:55.405Z,31.28
2018-11-06T04:14:55.404Z,31.18
2018-11-06T04:15:55.435Z,31.18
2018-11-06T04:16:55.420Z,31.37
2018-11-06T04:17:55.409Z,31.28
2018-11-06T04:18:55.414Z,31.18
2018-11-06T04:19:55.418Z,31.28
2018-11-06T04:20:55.423Z,31.37
2018-11-06T04:21:55.522Z,31.09
2018-11-06T04:22:55.432Z,31.37
2018-11-06T04:23:55.439Z,31.18
2018-11-06T04:24:55.443Z,31.28
2018-11-06T04:25:55.446Z,31.37
2018-11-06T04:26:55.452Z,31.09
2018-11-06T04:27:55.483Z,31.28
2018-11-06T04:28:55.463Z,31.18
2018-11-06T04:29:55.465Z,31.37
2018-11-06T04:30:55.483Z,31.37
2018-11-06T04:31:55.478Z,31.28
2018-11-06T04:32:55.480Z,31.18
2018-11-06T04:33:55.484Z,31.18
2018-11-06T04:34:55.489Z,31.09
2018-11-06T04:35:55.495Z,31.37
2018-11-06T04:36:55.504Z,31.18
2018-11-06T04:37:55.504Z,31.28
2018-11-06T04:38:55.512Z,31.18
2018-11-06T04:39:55.514Z,31.09
2018-11-06T04:40:55.522Z,31.18
2018-11-06T04:41:55.521Z,31.18
2018-11-06T04:42:55.531Z,31.28
2018-11-06T04:43:55.532Z,31.28
2018-11-06T04:44:55.537Z,31.18
2018-11-06T04:45:55.543Z,31.09
2018-11-06T04:46:55.547Z,31.18
2018-11-06T04:47:55.552Z,31.28
2018-11-06T04:48:55.556Z,31.09
2018-11-06T04:49:55.560Z,31.18
2018-11-06T04:50:55.565Z,31.18
2018-11-06T04:51:55.570Z,31.28
2018-11-06T04:52:55.616Z,31.18
2018-11-06T04:53:55.579Z,31.37
2018-11-06T04:54:55.590Z,31.09
2018-11-06T04:55:55.590Z,31.09
2018-11-06T04:56:55.611Z,31.09
2018-11-06T04:57:55.598Z,31.18
2018-11-06T04:58:55.603Z,31.18
2018-11-06T04:59:55.608Z,31.28
2018-11-06T05:00:55.614Z,31.18
2018-11-06T05:01:55.648Z,31.18
2018-11-06T05:02:55.623Z,31.09
2018-11-06T05:03:55.628Z,31.28
2018-11-06T05:04:55.632Z,31.18
2018-11-06T05:05:55.637Z,30.99
2018-11-06T05:06:55.712Z,31.18
2018-11-06T05:07:55.713Z,31.09
2018-11-06T05:08:55.652Z,30.79
2018-11-06T05:09:55.657Z,30.79
2018-11-06T05:10:55.730Z,30.79
2018-11-06T05:11:55.665Z,30.51
2018-11-06T05:12:55.672Z,30.11
2018-11-06T05:13:55.745Z,30.11
2018-11-06T05:14:55.687Z,30.11
2018-11-06T05:15:55.689Z,30.11
2018-11-06T05:16:55.691Z,30.21
2018-11-06T05:17:55.694Z,30.02
2018-11-06T05:18:55.700Z,30.21
2018-11-06T05:19:55.705Z,30.02
2018-11-06T05:20:55.708Z,29.91
2018-11-06T05:21:55.712Z,29.61
2018-11-06T05:22:55.717Z,29.92
2018-11-06T05:23:55.769Z,29.91
2018-11-06T05:24:55.727Z,29.61
2018-11-06T05:25:55.731Z,30.00
2018-11-06T05:26:55.793Z,29.91
2018-11-06T05:27:55.754Z,30.00
2018-11-06T05:28:55.747Z,30.20
2018-11-06T05:29:55.750Z,29.61
2018-11-06T05:30:55.761Z,29.52
2018-11-06T05:31:55.761Z,29.61
2018-11-06T05:32:55.860Z,30.10
2018-11-06T05:33:55.769Z,29.71
2018-11-06T05:34:55.849Z,29.52
2018-11-06T05:35:55.782Z,29.52
2018-11-06T05:36:55.784Z,29.81
2018-11-06T05:37:55.787Z,29.52
2018-11-06T05:38:55.832Z,29.61
2018-11-06T05:39:55.804Z,29.81
2018-11-06T05:40:55.837Z,29.61
2018-11-06T05:41:55.806Z,29.61
2018-11-06T05:42:55.872Z,29.61
2018-11-06T05:43:55.895Z,29.81
2018-11-06T05:44:55.822Z,29.73
2018-11-06T05:45:55.827Z,29.63
2018-11-06T05:46:55.829Z,29.53
2018-11-06T05:47:55.838Z,29.63
2018-11-06T05:48:55.840Z,29.83
2018-11-06T05:49:55.846Z,29.73
2018-11-06T05:50:55.849Z,29.63
2018-11-06T05:51:55.853Z,29.92
2018-11-06T05:52:55.860Z,29.53
2018-11-06T05:53:55.864Z,29.73
2018-11-06T05:54:55.867Z,29.63
2018-11-06T05:55:55.872Z,29.83
2018-11-06T05:56:55.881Z,29.63
2018-11-06T05:57:55.883Z,29.63
2018-11-06T05:58:55.886Z,29.63
2018-11-06T05:59:55.892Z,29.63
2018-11-06T06:00:55.896Z,29.63
2018-11-06T06:01:55.899Z,29.73
2018-11-06T06:02:55.909Z,30.11
2018-11-06T06:03:55.911Z,30.11
2018-11-06T06:04:55.915Z,29.92
2018-11-06T06:05:55.919Z,30.21
2018-11-06T06:06:55.923Z,30.21
2018-11-06T06:07:55.930Z,30.21
2018-11-06T06:08:55.934Z,30.21
2018-11-06T06:09:55.940Z,30.21
2018-11-06T06:10:55.952Z,30.21
2018-11-06T06:11:55.949Z,30.21
2018-11-06T06:12:55.953Z,30.21
2018-11-06T06:13:55.962Z,30.02
2018-11-06T06:14:55.965Z,30.11
2018-11-06T06:15:55.966Z,30.11
2018-11-06T06:16:56.028Z,30.11
2018-11-06T06:17:55.976Z,30.11
2018-11-06T06:18:56.052Z,30.11
2018-11-06T06:19:55.987Z,29.63
2018-11-06T06:20:55.991Z,30.02
2018-11-06T06:21:55.998Z,30.11
2018-11-06T06:22:55.999Z,30.13
2018-11-06T06:23:56.005Z,29.63
2018-11-06T06:24:56.012Z,29.53
2018-11-06T06:25:56.015Z,29.92
2018-11-06T06:26:56.021Z,29.92
2018-11-06T06:27:56.027Z,29.63
2018-11-06T06:28:56.031Z,29.53
2018-11-06T06:29:56.036Z,29.36
2018-11-06T06:30:56.040Z,29.44
2018-11-06T06:31:56.046Z,29.46
2018-11-06T06:32:56.052Z,29.36
2018-11-06T06:33:56.056Z,29.26
2018-11-06T06:34:56.125Z,29.16
2018-11-06T06:35:56.156Z,28.97
2018-11-06T06:36:56.071Z,28.97
2018-11-06T06:37:56.078Z,29.06
2018-11-06T06:38:56.078Z,28.77
2018-11-06T06:39:56.127Z,28.86
2018-11-06T06:40:56.181Z,28.97
2018-11-06T06:41:56.094Z,29.16
2018-11-06T06:42:56.099Z,29.06
2018-11-06T06:43:56.120Z,28.87
2018-11-06T06:44:56.111Z,29.06
2018-11-06T06:45:56.112Z,29.16
2018-11-06T06:46:56.167Z,29.16
2018-11-06T06:47:56.122Z,29.05
2018-11-06T06:48:56.128Z,28.58
2018-11-06T06:49:56.167Z,28.58
2018-11-06T06:50:56.136Z,28.68
2018-11-06T06:51:56.141Z,28.68
2018-11-06T06:52:56.149Z,28.49
2018-11-06T06:53:56.185Z,28.87
2018-11-06T06:54:56.228Z,28.68
2018-11-06T06:55:56.162Z,28.58
2018-11-06T06:56:56.165Z,28.29
2018-11-06T06:57:56.175Z,28.29
2018-11-06T06:58:56.176Z,28.68
2018-11-06T06:59:56.239Z,28.58
2018-11-06T07:00:56.186Z,28.49
2018-11-06T07:01:56.194Z,28.49
2018-11-06T07:02:56.196Z,28.39
2018-11-06T07:03:56.201Z,28.49
2018-11-06T07:04:56.259Z,28.58
2018-11-06T07:05:56.209Z,28.29
2018-11-06T07:06:56.216Z,28.58
2018-11-06T07:07:56.221Z,28.58
2018-11-06T07:08:56.309Z,28.29
2018-11-06T07:09:56.237Z,28.58
2018-11-06T07:10:56.244Z,28.58
2018-11-06T07:11:56.242Z,28.49
2018-11-06T07:12:56.294Z,28.58
2018-11-06T07:13:56.254Z,28.68
2018-11-06T07:14:56.286Z,28.77
2018-11-06T07:15:56.262Z,28.68
2018-11-06T07:16:56.264Z,28.77
2018-11-06T07:17:56.272Z,28.68
2018-11-06T07:18:56.276Z,28.68
2018-11-06T07:19:56.282Z,28.77
2018-11-06T07:20:56.287Z,28.77
2018-11-06T07:21:56.290Z,28.77
2018-11-06T07:22:56.299Z,28.68
2018-11-06T07:23:56.304Z,28.77
2018-11-06T07:24:56.307Z,28.68
2018-11-06T07:25:56.314Z,28.58
2018-11-06T07:26:56.316Z,28.58
2018-11-06T07:27:56.320Z,28.68
2018-11-06T07:28:56.372Z,28.68
2018-11-06T07:29:56.330Z,28.59
2018-11-06T07:30:56.363Z,28.69
2018-11-06T07:31:56.344Z,28.49
2018-11-06T07:32:56.352Z,28.98
2018-11-06T07:33:56.370Z,29.27
2018-11-06T07:34:56.659Z,29.17
2018-11-06T07:35:56.396Z,29.08
2018-11-06T07:36:56.370Z,29.17
2018-11-06T07:37:56.371Z,29.17
2018-11-06T07:38:56.388Z,29.17
2018-11-06T07:39:56.383Z,28.98
2018-11-06T07:40:56.478Z,29.17
2018-11-06T07:41:56.392Z,29.17
2018-11-06T07:42:56.398Z,29.08
2018-11-06T07:43:56.403Z,29.08
2018-11-06T07:44:56.407Z,28.98
2018-11-06T07:45:56.411Z,28.98
2018-11-06T07:46:56.416Z,29.17
2018-11-06T07:47:56.421Z,28.98
2018-11-06T07:48:56.426Z,29.17
2018-11-06T07:49:56.574Z,28.59
2018-11-06T07:50:56.437Z,28.59
2018-11-06T07:51:56.448Z,28.59
2018-11-06T07:52:56.456Z,28.69
2018-11-06T07:53:56.497Z,28.59
2018-11-06T07:54:56.460Z,28.59
2018-11-06T07:55:56.465Z,28.69
2018-11-06T07:56:56.468Z,28.69
2018-11-06T07:57:56.475Z,28.69
2018-11-06T07:58:56.479Z,28.59
2018-11-06T07:59:56.484Z,28.59
2018-11-06T08:00:56.489Z,28.59
2018-11-06T08:01:56.495Z,28.30
2018-11-06T08:02:56.501Z,28.30
2018-11-06T08:03:56.590Z,28.40
2018-11-06T08:04:56.520Z,28.50
2018-11-06T08:05:56.515Z,28.20
2018-11-06T08:06:56.520Z,27.92
2018-11-06T08:07:56.548Z,28.30
2018-11-06T08:08:56.532Z,28.20
2018-11-06T08:09:56.603Z,28.30
2018-11-06T08:10:56.544Z,28.30
2018-11-06T08:11:56.548Z,28.20
2018-11-06T08:12:56.555Z,28.20
2018-11-06T08:13:56.558Z,27.92
2018-11-06T08:14:56.627Z,28.30
2018-11-06T08:15:56.569Z,27.92
2018-11-06T08:16:56.571Z,28.02
2018-11-06T08:17:56.588Z,27.92
2018-11-06T08:18:56.584Z,27.92
2018-11-06T08:19:56.589Z,28.11
2018-11-06T08:20:56.594Z,28.11
2018-11-06T08:21:56.603Z,28.02
2018-11-06T08:22:56.605Z,28.02
2018-11-06T08:23:56.644Z,28.11
2018-11-06T08:24:56.614Z,28.11
2018-11-06T08:25:56.620Z,28.11
2018-11-06T08:26:56.643Z,28.30
2018-11-06T08:27:56.793Z,28.13
2018-11-06T08:28:56.636Z,28.11
2018-11-06T08:29:56.644Z,28.30
2018-11-06T08:30:56.870Z,28.32
2018-11-06T08:31:57.047Z,28.02
2018-11-06T08:32:56.661Z,27.82
2018-11-06T08:33:56.663Z,27.62
2018-11-06T08:34:56.680Z,27.93
2018-11-06T08:35:56.676Z,27.73
2018-11-06T08:36:56.703Z,27.92
2018-11-06T08:37:56.685Z,27.72
2018-11-06T08:38:56.731Z,27.72
2018-11-06T08:39:56.695Z,27.93
2018-11-06T08:40:56.701Z,27.73
2018-11-06T08:41:56.706Z,27.72
2018-11-06T08:42:56.713Z,27.83
2018-11-06T08:43:56.717Z,28.03
2018-11-06T08:44:56.755Z,27.83
2018-11-06T08:45:56.728Z,27.83
2018-11-06T08:46:56.735Z,28.13
2018-11-06T08:47:56.767Z,28.11
2018-11-06T08:48:56.742Z,28.03
2018-11-06T08:49:56.747Z,27.83
2018-11-06T08:50:56.770Z,27.93
2018-11-06T08:51:56.778Z,27.83
2018-11-06T08:52:56.766Z,27.73
2018-11-06T08:53:56.768Z,27.73
2018-11-06T08:54:56.777Z,27.83
2018-11-06T08:55:56.783Z,27.73
2018-11-06T08:56:56.785Z,27.83
2018-11-06T08:57:56.790Z,27.73
2018-11-06T08:58:56.805Z,27.73
2018-11-06T08:59:56.809Z,27.73
2018-11-06T09:00:56.818Z,27.83
2018-11-06T09:01:56.811Z,27.83
2018-11-06T09:02:56.818Z,27.73
2018-11-06T09:03:56.824Z,27.83
2018-11-06T09:04:56.829Z,27.83
2018-11-06T09:05:56.843Z,27.83
2018-11-06T09:06:56.840Z,27.83
2018-11-06T09:07:56.846Z,27.64
2018-11-06T09:08:56.946Z,27.83
2018-11-06T09:09:56.860Z,27.73
2018-11-06T09:10:56.879Z,27.73
2018-11-06T09:11:56.872Z,27.73
2018-11-06T09:12:56.894Z,27.64
2018-11-06T09:13:56.879Z,27.64
2018-11-06T09:14:56.910Z,27.64
2018-11-06T09:15:56.892Z,27.54
2018-11-06T09:16:56.965Z,27.45
2018-11-06T09:17:56.911Z,27.73
2018-11-06T09:18:56.905Z,27.45
2018-11-06T09:19:56.920Z,27.45
2018-11-06T09:20:56.914Z,27.73
2018-11-06T09:21:56.929Z,27.45
2018-11-06T09:22:56.925Z,27.73
2018-11-06T09:23:56.932Z,27.54
2018-11-06T09:24:56.936Z,27.25
2018-11-06T09:25:56.947Z,27.54
2018-11-06T09:26:56.960Z,27.54
2018-11-06T09:27:56.961Z,27.54
2018-11-06T09:28:56.960Z,27.54
2018-11-06T09:29:56.966Z,27.54
2018-11-06T09:30:57.026Z,27.35
2018-11-06T09:31:56.975Z,27.35
2018-11-06T09:32:56.979Z,27.35
2018-11-06T09:33:56.988Z,27.25
2018-11-06T09:34:56.989Z,27.45
2018-11-06T09:35:57.002Z,27.35
2018-11-06T09:36:57.003Z,27.35
2018-11-06T09:37:57.007Z,27.35
2018-11-06T09:38:57.016Z,27.35
2018-11-06T09:39:57.016Z,27.35
2018-11-06T09:40:57.045Z,27.25
2018-11-06T09:41:57.027Z,27.15
2018-11-06T09:42:57.036Z,27.24
2018-11-06T09:43:57.038Z,27.15
2018-11-06T09:44:57.107Z,27.35
2018-11-06T09:45:57.057Z,27.25
2018-11-06T09:46:57.054Z,27.15
2018-11-06T09:47:57.111Z,27.15
2018-11-06T09:48:57.091Z,27.04
2018-11-06T09:49:57.073Z,27.15
2018-11-06T09:50:57.092Z,27.14
2018-11-06T09:51:57.094Z,27.14
2018-11-06T09:52:57.087Z,27.04
2018-11-06T09:53:57.136Z,27.15
2018-11-06T09:54:57.097Z,27.04
2018-11-06T09:55:57.101Z,27.04
2018-11-06T09:56:57.108Z,27.04
2018-11-06T09:57:57.113Z,27.24
2018-11-06T09:58:57.118Z,27.14
2018-11-06T09:59:57.156Z,27.04
2018-11-06T10:00:57.147Z,27.04
2018-11-06T10:01:57.139Z,26.95
2018-11-06T10:02:57.139Z,26.95
2018-11-06T10:03:57.144Z,27.04
2018-11-06T10:04:57.151Z,27.04
2018-11-06T10:05:57.153Z,27.04
2018-11-06T10:06:57.508Z,27.14
2018-11-06T10:07:57.199Z,27.14
2018-11-06T10:08:57.170Z,27.04
2018-11-06T10:09:57.176Z,27.14
2018-11-06T10:10:57.181Z,26.95
2018-11-06T10:11:57.187Z,26.85
2018-11-06T10:12:57.191Z,26.95
2018-11-06T10:13:57.197Z,26.95
2018-11-06T10:14:57.206Z,27.14
2018-11-06T10:15:57.231Z,27.04
2018-11-06T10:16:57.243Z,27.04
2018-11-06T10:17:57.217Z,27.04
2018-11-06T10:18:57.222Z,27.04
2018-11-06T10:19:57.228Z,27.04
2018-11-06T10:20:57.233Z,27.04
2018-11-06T10:21:57.237Z,27.04
2018-11-06T10:22:57.244Z,27.04
2018-11-06T10:23:57.250Z,27.24
2018-11-06T10:24:57.254Z,27.24
2018-11-06T10:25:57.260Z,27.14
2018-11-06T10:26:57.276Z,27.24
2018-11-06T10:27:57.272Z,27.33
2018-11-06T10:28:57.276Z,27.33
2018-11-06T10:29:57.280Z,27.24
2018-11-06T10:30:57.392Z,27.24
2018-11-06T10:31:57.292Z,27.33
2018-11-06T10:32:57.299Z,27.43
2018-11-06T10:33:57.348Z,27.43
2018-11-06T10:34:57.308Z,27.33
2018-11-06T10:35:57.311Z,27.33
2018-11-06T10:36:57.504Z,27.24
2018-11-06T10:37:57.328Z,27.43
2018-11-06T10:38:57.328Z,27.43
2018-11-06T10:39:57.338Z,27.24
2018-11-06T10:40:57.337Z,27.53
2018-11-06T10:41:57.342Z,27.53
2018-11-06T10:42:57.349Z,27.43
2018-11-06T10:43:57.352Z,27.43
2018-11-06T10:44:57.357Z,27.53
2018-11-06T10:45:57.372Z,27.51
2018-11-06T10:46:57.368Z,27.53
2018-11-06T10:47:57.373Z,27.53
2018-11-06T10:48:57.380Z,27.72
2018-11-06T10:49:57.393Z,27.53
2018-11-06T10:50:57.396Z,27.62
2018-11-06T10:51:57.582Z,27.72
2018-11-06T10:52:57.400Z,27.82
2018-11-06T10:53:57.403Z,27.72
2018-11-06T10:54:57.411Z,27.82
2018-11-06T10:55:57.414Z,27.82
2018-11-06T10:56:57.420Z,27.72
2018-11-06T10:57:57.479Z,27.82
2018-11-06T10:58:57.433Z,27.92
2018-11-06T10:59:57.438Z,27.82
2018-11-06T11:00:57.445Z,28.11
2018-11-06T11:01:57.447Z,27.92
2018-11-06T11:02:57.455Z,28.11
2018-11-06T11:03:57.500Z,28.20
2018-11-06T11:04:57.460Z,28.30
2018-11-06T11:05:57.468Z,28.20
2018-11-06T11:06:57.481Z,28.20
2018-11-06T11:07:57.476Z,28.11
2018-11-06T11:08:57.481Z,28.02
2018-11-06T11:09:57.487Z,28.30
2018-11-06T11:10:57.492Z,28.20
2018-11-06T11:11:57.495Z,28.30
2018-11-06T11:12:57.501Z,28.30
2018-11-06T11:13:57.506Z,28.20
2018-11-06T11:14:57.514Z,28.20
2018-11-06T11:15:57.516Z,28.11
2018-11-06T11:16:57.524Z,28.11
2018-11-06T11:17:57.528Z,28.11
2018-11-06T11:18:57.531Z,28.11
2018-11-06T11:19:57.542Z,28.11
2018-11-06T11:20:57.573Z,28.11
2018-11-06T11:21:57.546Z,28.11
2018-11-06T11:22:57.562Z,28.20
2018-11-06T11:23:57.562Z,28.11
2018-11-06T11:24:57.566Z,28.11
2018-11-06T11:25:57.568Z,28.02
2018-11-06T11:26:57.574Z,28.02
2018-11-06T11:27:57.582Z,28.02
2018-11-06T11:28:57.583Z,27.92
2018-11-06T11:29:57.589Z,27.92
2018-11-06T11:30:57.601Z,28.02
2018-11-06T11:31:57.604Z,28.02
2018-11-06T11:32:57.601Z,28.02
2018-11-06T11:33:57.698Z,28.11
2018-11-06T11:34:57.730Z,28.11
2018-11-06T11:35:57.620Z,28.09
2018-11-06T11:36:57.625Z,28.11
2018-11-06T11:37:57.639Z,28.11
2018-11-06T11:38:57.636Z,28.02
2018-11-06T11:39:57.641Z,28.11
2018-11-06T11:40:57.647Z,27.82
2018-11-06T11:41:57.652Z,28.19
2018-11-06T11:42:57.657Z,28.29
2018-11-06T11:43:57.664Z,28.11
2018-11-06T11:44:57.695Z,28.02
2018-11-06T11:45:57.761Z,27.81
2018-11-06T11:46:57.680Z,27.62
2018-11-06T11:47:57.734Z,27.81
2018-11-06T11:48:57.685Z,27.61
2018-11-06T11:49:57.702Z,27.91
2018-11-06T11:50:57.693Z,27.92
2018-11-06T11:51:57.702Z,27.71
2018-11-06T11:52:57.708Z,27.72
2018-11-06T11:53:57.723Z,27.71
2018-11-06T11:54:57.737Z,27.72
2018-11-06T11:55:57.720Z,27.61
2018-11-06T11:56:57.728Z,27.61
2018-11-06T11:57:57.736Z,27.71
2018-11-06T11:58:57.737Z,27.61
2018-11-06T11:59:57.781Z,27.61
2018-11-06T12:00:57.747Z,27.61
2018-11-06T12:01:57.805Z,27.51
2018-11-06T12:02:57.757Z,27.71
2018-11-06T12:03:57.761Z,27.51
2018-11-06T12:04:57.769Z,27.42
2018-11-06T12:05:57.774Z,27.51
2018-11-06T12:06:57.777Z,27.51
2018-11-06T12:07:57.784Z,27.51
2018-11-06T12:08:57.786Z,27.51
2018-11-06T12:09:57.797Z,27.42
2018-11-06T12:10:57.801Z,27.32
2018-11-06T12:11:57.806Z,27.61
2018-11-06T12:12:57.819Z,27.61
2018-11-06T12:13:57.820Z,27.71
2018-11-06T12:14:57.818Z,27.71
2018-11-06T12:15:57.826Z,27.71
2018-11-06T12:16:57.829Z,27.71
2018-11-06T12:17:57.870Z,27.81
2018-11-06T12:18:57.837Z,27.71
2018-11-06T12:19:57.845Z,27.61
2018-11-06T12:20:57.848Z,27.81
2018-11-06T12:21:57.853Z,27.81
2018-11-06T12:22:57.861Z,27.81
2018-11-06T12:23:57.920Z,27.71
2018-11-06T12:24:58.098Z,27.81
2018-11-06T12:25:57.875Z,27.81
2018-11-06T12:26:57.879Z,27.71
2018-11-06T12:27:57.886Z,27.71
2018-11-06T12:28:57.890Z,27.81
2018-11-06T12:29:57.899Z,27.71
2018-11-06T12:30:57.904Z,27.72
2018-11-06T12:31:57.902Z,27.71
2018-11-06T12:32:57.921Z,27.82
2018-11-06T12:33:57.921Z,27.72
2018-11-06T12:34:57.972Z,27.71
2018-11-06T12:35:57.924Z,27.91
2018-11-06T12:36:57.975Z,27.81
2018-11-06T12:37:57.934Z,27.72
2018-11-06T12:38:57.938Z,27.81
2018-11-06T12:39:57.944Z,27.81
2018-11-06T12:40:57.949Z,27.82
2018-11-06T12:41:57.970Z,27.91
2018-11-06T12:42:57.991Z,27.91
2018-11-06T12:43:57.964Z,28.02
2018-11-06T12:44:57.969Z,27.72
2018-11-06T12:45:57.976Z,27.92
2018-11-06T12:46:57.982Z,28.02
2018-11-06T12:47:58.088Z,27.92
2018-11-06T12:48:57.993Z,27.92
2018-11-06T12:49:57.996Z,27.72
2018-11-06T12:50:58.002Z,27.72
2018-11-06T12:51:58.007Z,27.92
2018-11-06T12:52:58.011Z,27.72